Time;durP1;ratioP1;P1;durP2;ratioP2;P2;SDS_P1;SDS_P2;PMS_P1;PMS_P2;Temp;Humidity;BMP_temperature;BMP_pressure;BME280_temperature;BME280_humidity;BME280_pressure;Samples;Min_cycle;Max_cycle;Signal;HPM_P1;HPM_P2
2024/01/12 00:01:29;;;;;;;22.65;13.45;;;-0.70;99.90;;;;;;4963138;28;20082;-69
2024/01/12 00:03:55;;;;;;;24.60;14.10;;;-0.60;99.90;;;;;;4971984;28;20026;-69
2024/01/12 00:06:20;;;;;;;23.85;13.20;;;-0.70;99.90;;;;;;4958335;28;20697;-70
2024/01/12 00:08:46;;;;;;;20.10;11.95;;;-0.70;99.90;;;;;;4955054;28;20046;-69
2024/01/12 00:11:11;;;;;;;18.75;11.57;;;-0.90;99.90;;;;;;4966972;28;20045;-69
2024/01/12 00:13:38;;;;;;;17.70;10.30;;;-1.00;99.90;;;;;;4970241;28;20035;-69
2024/01/12 00:16:07;;;;;;;19.15;10.77;;;-1.20;99.90;;;;;;4971557;28;20652;-69
2024/01/12 00:18:34;;;;;;;18.33;10.57;;;-1.20;99.90;;;;;;4969233;28;20558;-69
2024/01/12 00:21:00;;;;;;;16.73;10.20;;;-1.20;99.90;;;;;;4966549;28;20062;-70
2024/01/12 00:23:26;;;;;;;16.30;10.60;;;-1.30;99.90;;;;;;4969462;28;20034;-69
2024/01/12 00:25:58;;;;;;;17.42;10.25;;;-1.30;99.90;;;;;;4970219;28;20030;-69
2024/01/12 00:28:25;;;;;;;18.23;10.35;;;-1.40;99.90;;;;;;4955550;28;20130;-69
2024/01/12 00:30:51;;;;;;;19.02;11.40;;;-1.40;99.90;;;;;;4968265;28;20058;-70
2024/01/12 00:33:16;;;;;;;19.50;10.88;;;-1.40;99.90;;;;;;4968839;28;20177;-70
2024/01/12 00:35:42;;;;;;;16.42;9.38;;;-1.40;99.90;;;;;;4969338;28;20117;-69
2024/01/12 00:38:08;;;;;;;16.83;10.48;;;-1.40;99.90;;;;;;4975130;28;20038;-70
2024/01/12 00:40:33;;;;;;;18.38;10.63;;;-1.40;99.90;;;;;;4968973;28;20022;-69
2024/01/12 00:42:59;;;;;;;14.45;8.45;;;-1.50;99.90;;;;;;4968143;28;20038;-70
2024/01/12 00:45:24;;;;;;;15.10;9.80;;;-1.50;99.90;;;;;;4971708;28;20080;-70
2024/01/12 00:47:50;;;;;;;14.48;8.85;;;-1.60;99.90;;;;;;4965483;28;20034;-70
2024/01/12 00:50:15;;;;;;;14.23;8.40;;;-1.70;99.90;;;;;;4974503;28;20129;-71
2024/01/12 00:52:41;;;;;;;12.77;7.82;;;-1.80;99.90;;;;;;4965887;28;20121;-70
2024/01/12 00:55:07;;;;;;;17.00;8.35;;;-1.90;99.90;;;;;;4966905;28;20941;-71
2024/01/12 00:57:33;;;;;;;15.98;8.73;;;-2.00;99.90;;;;;;4969680;28;20634;-71
2024/01/12 00:59:58;;;;;;;16.50;8.93;;;-2.00;99.90;;;;;;4972389;28;20069;-71
2024/01/12 01:02:24;;;;;;;15.82;9.23;;;-1.90;99.90;;;;;;4966935;28;20040;-70
2024/01/12 01:04:49;;;;;;;30.20;11.02;;;-1.80;99.90;;;;;;4964128;28;20022;-70
2024/01/12 01:07:15;;;;;;;17.02;9.88;;;-1.70;99.90;;;;;;4978414;28;20054;-71
2024/01/12 01:09:40;;;;;;;21.63;12.38;;;-1.60;99.90;;;;;;4956671;28;20046;-71
2024/01/12 01:12:06;;;;;;;22.63;12.05;;;-1.60;99.90;;;;;;4963481;28;20396;-71
2024/01/12 01:14:32;;;;;;;20.55;12.98;;;-1.60;99.90;;;;;;4959615;28;20038;-70
2024/01/12 01:16:57;;;;;;;24.88;14.55;;;-1.50;99.90;;;;;;4963613;28;20125;-72
2024/01/12 01:19:23;;;;;;;24.20;13.73;;;-1.40;99.90;;;;;;4963000;28;20035;-71
2024/01/12 01:21:49;;;;;;;29.98;15.90;;;-1.40;99.90;;;;;;4964266;28;20342;-70
2024/01/12 01:24:15;;;;;;;28.50;16.38;;;-1.60;99.90;;;;;;4963322;28;20018;-72
2024/01/12 01:26:40;;;;;;;33.42;16.05;;;-1.70;99.90;;;;;;4954722;28;20049;-70
2024/01/12 01:29:06;;;;;;;24.33;14.57;;;-1.80;99.90;;;;;;4964858;28;20186;-71
2024/01/12 01:31:32;;;;;;;28.50;13.50;;;-1.90;99.90;;;;;;4963030;28;20128;-69
2024/01/12 01:33:58;;;;;;;21.27;12.73;;;-2.00;99.90;;;;;;4965776;28;20106;-67
2024/01/12 01:36:23;;;;;;;17.60;10.00;;;-2.00;99.90;;;;;;4964092;28;20031;-68
2024/01/12 01:38:49;;;;;;;17.67;10.70;;;-2.10;99.90;;;;;;4963790;28;20030;-69
2024/01/12 01:41:14;;;;;;;17.48;10.35;;;-2.20;99.90;;;;;;4961334;28;20502;-69
2024/01/12 01:43:40;;;;;;;18.25;10.43;;;-2.20;99.90;;;;;;4959366;28;20802;-69
2024/01/12 01:46:06;;;;;;;18.88;10.85;;;-2.40;99.90;;;;;;4959658;28;20041;-69
2024/01/12 01:48:32;;;;;;;20.48;11.27;;;-2.50;99.90;;;;;;4962782;28;21388;-69
2024/01/12 01:50:58;;;;;;;23.25;12.05;;;-2.50;99.90;;;;;;4958141;28;20037;-69
2024/01/12 01:53:24;;;;;;;22.08;12.75;;;-2.40;99.90;;;;;;4961106;28;22178;-69
2024/01/12 01:55:50;;;;;;;20.77;13.35;;;-2.30;99.90;;;;;;4962771;28;20384;-69
2024/01/12 01:58:16;;;;;;;16.88;9.48;;;-2.20;99.90;;;;;;4959031;28;20687;-69
2024/01/12 02:00:43;;;;;;;20.02;12.40;;;-2.20;99.90;;;;;;4962788;28;20032;-70
2024/01/12 02:03:09;;;;;;;19.38;11.63;;;-2.40;99.90;;;;;;4962511;28;20042;-69
2024/01/12 02:05:35;;;;;;;20.02;11.48;;;-2.50;99.90;;;;;;4963721;28;20030;-69
2024/01/12 02:08:01;;;;;;;24.35;13.40;;;-2.70;99.90;;;;;;4963734;28;20135;-69
2024/01/12 02:10:27;;;;;;;27.67;14.32;;;-2.70;99.90;;;;;;4965522;28;20076;-70
2024/01/12 02:12:54;;;;;;;24.08;12.18;;;-3.00;99.90;;;;;;4945806;28;20030;-69
2024/01/12 02:15:20;;;;;;;21.25;12.55;;;-3.20;99.90;;;;;;4962623;28;20093;-70
2024/01/12 02:17:46;;;;;;;23.00;12.57;;;-3.10;99.90;;;;;;4964286;28;20019;-69
2024/01/12 02:20:11;;;;;;;23.70;11.50;;;-2.90;99.90;;;;;;4967486;28;20033;-70
2024/01/12 02:22:37;;;;;;;25.88;12.15;;;-2.80;99.90;;;;;;4962563;28;20531;-69
2024/01/12 02:25:03;;;;;;;23.50;12.60;;;-2.60;99.90;;;;;;4960244;28;20039;-70
2024/01/12 02:27:29;;;;;;;19.85;12.00;;;-2.50;99.90;;;;;;4967483;28;20068;-70
2024/01/12 02:29:57;;;;;;;21.38;11.35;;;-2.50;99.90;;;;;;4968570;28;20459;-70
2024/01/12 02:32:22;;;;;;;19.48;10.02;;;-2.60;99.90;;;;;;4965064;28;20122;-69
2024/01/12 02:34:49;;;;;;;15.80;9.07;;;-2.70;99.90;;;;;;4967732;28;20224;-69
2024/01/12 02:37:15;;;;;;;14.85;9.80;;;-3.00;99.90;;;;;;4969837;28;20053;-69
2024/01/12 02:39:40;;;;;;;18.50;9.65;;;-2.90;99.90;;;;;;4965110;28;20034;-70
2024/01/12 02:42:06;;;;;;;21.85;11.45;;;-2.90;99.90;;;;;;4963550;28;20045;-69
2024/01/12 02:44:31;;;;;;;17.55;9.25;;;-2.80;99.90;;;;;;4965004;28;20060;-69
2024/01/12 02:46:57;;;;;;;18.17;9.98;;;-2.80;99.90;;;;;;4968432;28;20038;-70
2024/01/12 02:49:23;;;;;;;15.82;10.20;;;-2.70;99.90;;;;;;4966512;28;20042;-70
2024/01/12 02:51:48;;;;;;;19.75;10.80;;;-3.10;99.90;;;;;;4966830;28;20588;-69
2024/01/12 02:54:14;;;;;;;31.17;15.90;;;-3.20;99.90;;;;;;4968966;28;20558;-69
2024/01/12 02:56:39;;;;;;;20.58;12.45;;;-3.20;99.90;;;;;;4964234;28;20108;-69
2024/01/12 02:59:05;;;;;;;21.48;11.38;;;-3.30;99.90;;;;;;4965480;28;20034;-69
2024/01/12 03:01:31;;;;;;;29.77;15.70;;;-3.30;99.90;;;;;;4960153;28;21981;-69
2024/01/12 03:03:57;;;;;;;25.95;14.52;;;-3.10;99.90;;;;;;4972864;28;20041;-69
2024/01/12 03:06:22;;;;;;;26.77;15.27;;;-2.90;99.90;;;;;;4966376;28;20038;-69
2024/01/12 03:08:48;;;;;;;16.38;9.57;;;-2.80;99.90;;;;;;4970674;28;20117;-70
2024/01/12 03:11:13;;;;;;;16.35;9.20;;;-3.00;99.90;;;;;;4969695;28;20042;-69
2024/01/12 03:13:39;;;;;;;19.08;11.43;;;-3.30;99.90;;;;;;4970145;28;20502;-69
2024/01/12 03:16:05;;;;;;;15.13;9.32;;;-3.40;99.90;;;;;;4954635;28;20037;-69
2024/01/12 03:18:32;;;;;;;14.55;9.02;;;-3.40;99.90;;;;;;4964335;28;20066;-70
2024/01/12 03:20:58;;;;;;;14.73;9.85;;;-3.30;99.90;;;;;;4960909;28;20411;-69
2024/01/12 03:23:24;;;;;;;24.75;12.73;;;-3.30;99.90;;;;;;4962780;28;20506;-69
2024/01/12 03:25:50;;;;;;;25.05;12.57;;;-3.20;99.90;;;;;;4963560;28;20041;-69
2024/01/12 03:28:15;;;;;;;23.70;11.63;;;-3.00;99.90;;;;;;4969545;28;20030;-69
2024/01/12 03:30:41;;;;;;;20.50;11.90;;;-3.00;99.90;;;;;;4969532;28;20089;-69
2024/01/12 03:33:08;;;;;;;25.05;12.07;;;-3.30;99.90;;;;;;4964997;28;20030;-69
2024/01/12 03:35:35;;;;;;;21.10;12.70;;;-3.80;99.90;;;;;;4971001;28;20038;-69
2024/01/12 03:38:01;;;;;;;22.90;12.70;;;-3.90;99.90;;;;;;4970812;28;20486;-69
2024/01/12 03:40:26;;;;;;;28.55;13.45;;;-3.70;99.90;;;;;;4969506;28;20038;-68
2024/01/12 03:42:52;;;;;;;24.48;12.77;;;-3.50;99.90;;;;;;4962899;28;20034;-69
2024/01/12 03:45:18;;;;;;;25.40;12.93;;;-3.30;99.90;;;;;;4954253;28;20135;-69
2024/01/12 03:47:43;;;;;;;47.28;24.63;;;-3.10;99.90;;;;;;4969801;28;20117;-69
2024/01/12 03:50:09;;;;;;;36.72;20.15;;;-3.00;99.90;;;;;;4971623;28;20034;-69
2024/01/12 03:52:35;;;;;;;25.80;15.25;;;-3.00;99.90;;;;;;4972403;28;20036;-69
2024/01/12 03:55:01;;;;;;;24.05;13.38;;;-2.90;99.90;;;;;;4966583;28;20042;-69
2024/01/12 03:57:27;;;;;;;25.15;14.70;;;-2.90;99.90;;;;;;4967617;28;20042;-69
2024/01/12 03:59:52;;;;;;;62.33;33.72;;;-3.00;99.90;;;;;;4969864;28;20356;-69
2024/01/12 04:02:18;;;;;;;28.73;16.75;;;-3.30;99.90;;;;;;4967542;28;20680;-69
2024/01/12 04:04:44;;;;;;;30.13;15.50;;;-3.50;99.90;;;;;;4952634;28;21374;-69
2024/01/12 04:07:10;;;;;;;31.85;17.23;;;-3.50;99.90;;;;;;4967920;28;20060;-69
2024/01/12 04:09:36;;;;;;;40.80;22.55;;;-3.50;99.90;;;;;;4969911;28;20077;-69
2024/01/12 04:12:02;;;;;;;40.35;21.67;;;-3.40;99.90;;;;;;4968032;28;20368;-69
2024/01/12 04:14:28;;;;;;;27.65;15.35;;;-3.20;99.90;;;;;;4967958;28;20344;-69
2024/01/12 04:16:53;;;;;;;34.63;19.10;;;-3.10;99.90;;;;;;4969964;28;20526;-69
2024/01/12 04:19:19;;;;;;;29.40;18.75;;;-3.00;99.90;;;;;;4971360;28;20139;-69
2024/01/12 04:21:45;;;;;;;37.17;21.13;;;-2.90;99.90;;;;;;4965114;28;20484;-69
2024/01/12 04:24:11;;;;;;;41.10;21.42;;;-2.80;99.90;;;;;;4969289;28;20798;-69
2024/01/12 04:26:37;;;;;;;38.20;20.17;;;-2.80;99.90;;;;;;4968377;28;20034;-69
2024/01/12 04:29:03;;;;;;;26.13;14.52;;;-3.00;99.90;;;;;;4969639;28;20108;-69
2024/01/12 04:31:29;;;;;;;28.23;16.85;;;-3.10;99.90;;;;;;4970362;28;20045;-69
2024/01/12 04:33:54;;;;;;;42.00;22.48;;;-3.20;99.90;;;;;;4983885;28;20043;-69
2024/01/12 04:36:24;;;;;;;36.97;19.58;;;-3.20;99.90;;;;;;4971663;28;20752;-69
2024/01/12 04:38:49;;;;;;;30.88;18.10;;;-3.20;99.90;;;;;;4971039;28;20134;-69
2024/01/12 04:41:15;;;;;;;30.05;16.38;;;-3.30;99.90;;;;;;4973210;28;20038;-69
2024/01/12 04:43:41;;;;;;;27.02;14.85;;;-3.20;99.90;;;;;;4970136;28;20054;-69
2024/01/12 04:46:06;;;;;;;30.20;17.70;;;-3.30;99.90;;;;;;4985503;28;20034;-69
2024/01/12 04:48:32;;;;;;;23.60;13.15;;;-3.20;99.90;;;;;;4972441;28;20126;-69
2024/01/12 04:50:57;;;;;;;23.10;12.27;;;-3.30;99.90;;;;;;4968611;28;20502;-69
2024/01/12 04:53:23;;;;;;;22.00;12.27;;;-3.40;99.90;;;;;;4969967;28;20037;-69
2024/01/12 04:55:49;;;;;;;20.65;13.52;;;-3.40;99.90;;;;;;4970747;28;20027;-69
2024/01/12 04:58:14;;;;;;;21.65;12.70;;;-3.40;99.90;;;;;;4969801;28;20037;-69
2024/01/12 05:00:40;;;;;;;24.60;15.52;;;-3.40;99.90;;;;;;4967357;28;20368;-69
2024/01/12 05:03:06;;;;;;;18.85;11.57;;;-3.40;99.90;;;;;;4966242;28;20463;-69
2024/01/12 05:05:31;;;;;;;22.17;11.98;;;-3.60;99.90;;;;;;4971872;28;20672;-69
2024/01/12 05:07:57;;;;;;;20.85;12.80;;;-3.80;99.90;;;;;;4977771;28;20041;-69
2024/01/12 05:10:22;;;;;;;37.60;15.23;;;-4.00;99.90;;;;;;4966838;28;20224;-69
2024/01/12 05:12:48;;;;;;;25.80;15.52;;;-3.90;99.90;;;;;;4966444;28;20033;-69
2024/01/12 05:15:14;;;;;;;25.98;15.27;;;-3.80;99.90;;;;;;4966080;28;20027;-70
2024/01/12 05:17:39;;;;;;;26.70;17.10;;;-3.80;99.90;;;;;;4970469;28;20034;-70
2024/01/12 05:20:06;;;;;;;34.78;22.05;;;-3.70;99.90;;;;;;4964976;28;20039;-71
2024/01/12 05:22:33;;;;;;;33.20;19.80;;;-3.60;99.90;;;;;;4964408;28;20031;-70
2024/01/12 05:24:59;;;;;;;45.53;27.02;;;-3.40;99.90;;;;;;4967082;28;20465;-70
2024/01/12 05:27:24;;;;;;;81.68;34.72;;;-3.30;99.90;;;;;;4959398;28;20522;-69
2024/01/12 05:29:50;;;;;;;90.28;27.75;;;-3.30;99.90;;;;;;4962493;28;20443;-69
2024/01/12 05:32:16;;;;;;;32.55;16.85;;;-3.20;99.90;;;;;;4968011;28;20030;-68
2024/01/12 05:34:41;;;;;;;42.10;18.60;;;-3.10;99.90;;;;;;4965501;28;20116;-70
2024/01/12 05:37:07;;;;;;;45.67;23.17;;;-2.90;99.90;;;;;;4970899;28;20057;-69
2024/01/12 05:39:32;;;;;;;42.10;23.40;;;-2.90;99.90;;;;;;4968913;28;20038;-69
2024/01/12 05:41:58;;;;;;;49.30;26.77;;;-2.90;99.90;;;;;;4963646;28;20338;-68
2024/01/12 05:44:23;;;;;;;55.80;31.02;;;-2.90;99.90;;;;;;4969399;28;20062;-70
2024/01/12 05:46:49;;;;;;;47.42;25.88;;;-3.20;99.90;;;;;;4946602;28;20624;-70
2024/01/12 05:49:14;;;;;;;35.63;19.42;;;-3.20;99.90;;;;;;4929009;28;20031;-69
2024/01/12 05:51:40;;;;;;;37.17;19.17;;;-3.10;99.90;;;;;;4929440;28;20031;-69
2024/01/12 05:54:06;;;;;;;63.65;31.20;;;-3.00;99.90;;;;;;4925962;28;21052;-68
2024/01/12 05:56:31;;;;;;;54.85;28.73;;;-3.00;99.90;;;;;;4928655;28;20125;-69
2024/01/12 05:58:57;;;;;;;64.00;27.55;;;-2.90;99.90;;;;;;4932007;28;20063;-69
2024/01/12 06:01:22;;;;;;;44.90;21.70;;;-2.80;99.90;;;;;;4927046;28;20464;-69
2024/01/12 06:03:48;;;;;;;41.42;22.23;;;-2.70;99.90;;;;;;4928605;28;20028;-70
2024/01/12 06:06:14;;;;;;;30.95;17.77;;;-2.70;99.90;;;;;;4931200;28;20573;-69
2024/01/12 06:08:39;;;;;;;31.73;18.02;;;-2.70;99.90;;;;;;4901506;29;20078;-70
2024/01/12 06:11:05;;;;;;;35.65;21.55;;;-2.50;99.90;;;;;;4899928;29;20067;-70
2024/01/12 06:13:30;;;;;;;35.80;20.77;;;-2.80;99.90;;;;;;4903270;29;20591;-70
2024/01/12 06:15:56;;;;;;;27.65;17.85;;;-2.90;99.90;;;;;;4901541;29;20036;-68
2024/01/12 06:18:22;;;;;;;28.17;15.98;;;-2.90;99.90;;;;;;4899814;29;20719;-69
2024/01/12 06:20:47;;;;;;;23.45;13.77;;;-2.90;99.90;;;;;;4903810;29;20031;-69
2024/01/12 06:23:14;;;;;;;21.90;12.95;;;-2.90;99.90;;;;;;4904341;29;20147;-70
2024/01/12 06:25:39;;;;;;;26.42;14.57;;;-2.90;99.90;;;;;;4902709;29;20126;-69
2024/01/12 06:28:05;;;;;;;23.42;13.40;;;-3.00;99.90;;;;;;4904033;29;20052;-70
2024/01/12 06:30:31;;;;;;;23.20;12.05;;;-2.90;99.90;;;;;;4906344;29;20111;-70
2024/01/12 06:33:00;;;;;;;19.38;12.23;;;-2.70;99.90;;;;;;4907462;29;20051;-70
2024/01/12 06:35:26;;;;;;;23.35;12.65;;;-2.70;99.90;;;;;;4911103;29;20036;-71
2024/01/12 06:37:51;;;;;;;34.22;20.60;;;-2.60;99.90;;;;;;4907870;29;20911;-70
2024/01/12 06:40:17;;;;;;;20.08;12.05;;;-2.50;99.90;;;;;;4910045;29;20053;-71
2024/01/12 06:42:43;;;;;;;23.55;15.63;;;-2.70;99.90;;;;;;4908215;29;20469;-70
2024/01/12 06:45:11;;;;;;;26.25;16.50;;;-3.00;99.90;;;;;;4908105;29;20464;-70
2024/01/12 06:47:36;;;;;;;23.90;14.55;;;-3.20;99.90;;;;;;4908783;29;20830;-69
2024/01/12 06:50:02;;;;;;;24.75;15.80;;;-3.20;99.90;;;;;;4912364;29;20059;-69
2024/01/12 06:52:30;;;;;;;25.45;15.38;;;-3.10;99.90;;;;;;4914292;29;20036;-70
2024/01/12 06:54:56;;;;;;;18.63;11.68;;;-3.00;99.90;;;;;;4912268;29;20340;-71
2024/01/12 06:57:21;;;;;;;21.77;13.95;;;-3.00;99.90;;;;;;4910219;29;21248;-70
2024/01/12 06:59:47;;;;;;;20.80;12.48;;;-3.20;99.90;;;;;;4915713;29;20127;-70
2024/01/12 07:02:14;;;;;;;20.52;13.20;;;-3.10;99.90;;;;;;4902620;29;20032;-70
2024/01/12 07:04:40;;;;;;;23.85;13.98;;;-3.20;99.90;;;;;;4911067;29;20655;-69
2024/01/12 07:07:05;;;;;;;31.40;18.25;;;-3.20;99.90;;;;;;4911270;29;20166;-69
2024/01/12 07:09:31;;;;;;;29.92;17.73;;;-3.20;99.90;;;;;;4913009;29;20047;-70
2024/01/12 07:11:56;;;;;;;32.55;17.30;;;-3.10;99.90;;;;;;4915510;29;20489;-70
2024/01/12 07:14:22;;;;;;;37.35;21.27;;;-3.00;99.90;;;;;;4910384;29;20039;-70
2024/01/12 07:16:48;;;;;;;38.17;21.65;;;-2.80;99.90;;;;;;4915869;29;20031;-69
2024/01/12 07:19:13;;;;;;;48.47;28.52;;;-2.70;99.90;;;;;;4917231;29;20070;-70
2024/01/12 07:21:39;;;;;;;48.00;26.55;;;-2.60;99.90;;;;;;4919300;29;20629;-70
2024/01/12 07:24:05;;;;;;;48.53;28.55;;;-2.50;99.90;;;;;;4918646;29;20031;-70
2024/01/12 07:26:30;;;;;;;44.53;26.38;;;-2.50;99.90;;;;;;4913694;29;20043;-70
2024/01/12 07:28:58;;;;;;;34.30;21.33;;;-2.30;99.90;;;;;;4917151;29;20568;-70
2024/01/12 07:31:24;;;;;;;33.38;18.13;;;-2.20;99.90;;;;;;4915530;29;20066;-70
2024/01/12 07:33:49;;;;;;;48.90;29.60;;;-2.10;99.90;;;;;;4917579;29;20031;-70
2024/01/12 07:36:15;;;;;;;31.33;17.02;;;-2.00;99.90;;;;;;4918284;29;20029;-70
2024/01/12 07:38:40;;;;;;;23.58;13.68;;;-1.80;99.90;;;;;;4918932;29;20134;-70
2024/01/12 07:41:06;;;;;;;55.00;36.13;;;-2.00;99.90;;;;;;4917927;29;20101;-70
2024/01/12 07:43:32;;;;;;;51.13;34.50;;;-2.20;99.90;;;;;;4913950;29;20092;-70
2024/01/12 07:45:58;;;;;;;25.40;16.80;;;-2.20;99.90;;;;;;4914059;29;20024;-69
2024/01/12 07:48:24;;;;;;;56.92;35.47;;;-2.10;99.90;;;;;;4917005;29;20505;-70
2024/01/12 07:50:50;;;;;;;50.85;31.13;;;-2.00;99.90;;;;;;4917291;29;20028;-70
2024/01/12 07:53:15;;;;;;;29.33;17.40;;;-2.00;99.90;;;;;;4911845;29;20036;-70
2024/01/12 07:55:41;;;;;;;29.38;16.35;;;-2.00;99.90;;;;;;4929485;28;20357;-70
2024/01/12 07:58:06;;;;;;;24.05;15.30;;;-2.10;99.90;;;;;;4919288;29;20043;-70
2024/01/12 08:00:32;;;;;;;27.65;16.30;;;-2.40;99.90;;;;;;4916516;29;20421;-70
2024/01/12 08:02:58;;;;;;;35.42;21.85;;;-2.40;99.90;;;;;;4916783;29;20028;-70
2024/01/12 08:05:23;;;;;;;44.88;27.20;;;-2.40;99.90;;;;;;4915217;29;20063;-70
2024/01/12 08:07:49;;;;;;;32.70;20.55;;;-2.40;99.90;;;;;;4923637;28;20186;-69
2024/01/12 08:10:16;;;;;;;42.60;24.98;;;-2.40;99.90;;;;;;4937402;28;20031;-69
2024/01/12 08:12:41;;;;;;;84.45;47.75;;;-2.50;99.90;;;;;;4930798;28;20584;-70
2024/01/12 08:15:10;;;;;;;39.47;23.85;;;-2.40;99.90;;;;;;4933472;28;20039;-70
2024/01/12 08:17:39;;;;;;;41.10;26.25;;;-2.40;99.90;;;;;;4936415;28;20035;-69
2024/01/12 08:20:05;;;;;;;40.38;24.25;;;-2.60;99.90;;;;;;4933024;28;20039;-70
2024/01/12 08:22:32;;;;;;;56.28;39.40;;;-2.50;99.90;;;;;;4931130;28;20027;-70
2024/01/12 08:24:58;;;;;;;52.92;34.25;;;-2.40;99.90;;;;;;4935798;28;20054;-69
2024/01/12 08:27:24;;;;;;;50.90;33.72;;;-2.30;99.90;;;;;;4928909;28;20506;-70
2024/01/12 08:29:50;;;;;;;31.85;19.05;;;-2.20;99.90;;;;;;4932752;28;20830;-70
2024/01/12 08:32:16;;;;;;;30.52;19.33;;;-2.10;99.90;;;;;;4933963;28;20460;-69
2024/01/12 08:34:42;;;;;;;50.20;32.15;;;-2.00;99.90;;;;;;4928365;28;20134;-69
2024/01/12 08:37:07;;;;;;;43.72;28.02;;;-1.90;99.90;;;;;;4932163;28;20042;-69
2024/01/12 08:39:33;;;;;;;34.33;23.83;;;-1.70;99.90;;;;;;4935674;28;20543;-70
2024/01/12 08:41:59;;;;;;;46.17;28.00;;;-1.50;99.90;;;;;;4932666;28;20610;-70
2024/01/12 08:44:24;;;;;;;42.15;26.77;;;-1.30;99.90;;;;;;4934364;28;20027;-69
2024/01/12 08:46:52;;;;;;;45.35;23.88;;;-1.20;99.90;;;;;;4929365;28;20038;-69
2024/01/12 08:49:18;;;;;;;35.38;21.45;;;-1.10;99.90;;;;;;4934179;28;20039;-69
2024/01/12 08:51:44;;;;;;;28.95;16.52;;;-0.90;99.90;;;;;;4933958;28;20047;-70
2024/01/12 08:54:10;;;;;;;23.38;14.93;;;-0.90;99.90;;;;;;4932960;28;20038;-70
2024/01/12 08:56:35;;;;;;;18.70;12.07;;;-0.70;99.90;;;;;;4934986;28;20118;-70
2024/01/12 08:59:01;;;;;;;20.23;13.10;;;-0.60;99.90;;;;;;4929113;28;20588;-69
2024/01/12 09:01:26;;;;;;;24.20;13.25;;;-0.50;99.90;;;;;;4930775;28;20479;-70
2024/01/12 09:03:52;;;;;;;20.85;12.07;;;-0.40;99.90;;;;;;4929826;28;20504;-70
2024/01/12 09:06:18;;;;;;;22.75;15.75;;;-0.30;99.90;;;;;;4931656;28;20031;-70
2024/01/12 09:08:43;;;;;;;22.30;13.45;;;-0.20;99.90;;;;;;4931711;28;20719;-70
2024/01/12 09:11:11;;;;;;;26.98;14.77;;;-0.20;99.90;;;;;;4931764;28;20086;-70
2024/01/12 09:13:37;;;;;;;25.08;15.30;;;-0.10;99.90;;;;;;4932803;28;20041;-70
2024/01/12 09:16:03;;;;;;;34.92;16.52;;;0.00;99.90;;;;;;4927709;28;20114;-70
2024/01/12 09:18:29;;;;;;;29.60;15.95;;;0.10;99.90;;;;;;4930700;28;20215;-70
2024/01/12 09:20:54;;;;;;;26.52;14.45;;;0.20;99.90;;;;;;4935691;28;20122;-70
2024/01/12 09:23:20;;;;;;;26.25;15.18;;;0.30;99.90;;;;;;4934508;28;20043;-70
2024/01/12 09:25:47;;;;;;;31.15;16.08;;;0.40;99.90;;;;;;4930074;28;20055;-69
2024/01/12 09:28:13;;;;;;;32.58;15.75;;;0.40;99.90;;;;;;4927761;28;20412;-70
2024/01/12 09:30:39;;;;;;;34.03;15.68;;;0.50;99.90;;;;;;4935050;28;20038;-69
2024/01/12 09:33:05;;;;;;;33.65;14.73;;;0.50;99.90;;;;;;4932495;28;20476;-70
2024/01/12 09:35:30;;;;;;;23.27;13.52;;;0.60;99.90;;;;;;4936855;28;20115;-70
2024/01/12 09:37:56;;;;;;;19.05;11.73;;;0.70;99.90;;;;;;4931511;28;20758;-70
2024/01/12 09:40:22;;;;;;;21.80;13.90;;;0.70;99.90;;;;;;4927069;28;20113;-69
2024/01/12 09:42:49;;;;;;;18.77;11.27;;;0.70;99.90;;;;;;4930853;28;20039;-69
2024/01/12 09:45:17;;;;;;;22.73;14.10;;;0.80;99.90;;;;;;4935062;28;20035;-69
2024/01/12 09:47:42;;;;;;;15.65;9.85;;;0.90;99.90;;;;;;4933468;28;20031;-70
2024/01/12 09:50:11;;;;;;;12.43;8.45;;;0.90;99.90;;;;;;4937841;28;20566;-70
2024/01/12 09:52:37;;;;;;;14.50;8.55;;;0.90;99.90;;;;;;4934089;28;20366;-70
2024/01/12 09:55:05;;;;;;;16.40;8.85;;;0.80;99.90;;;;;;4936495;28;20456;-71
2024/01/12 09:57:31;;;;;;;12.88;8.82;;;0.90;99.90;;;;;;4932800;28;20023;-70
2024/01/12 09:59:58;;;;;;;13.52;9.45;;;0.90;99.90;;;;;;4935720;28;20456;-71
2024/01/12 10:02:24;;;;;;;22.38;15.82;;;0.90;99.90;;;;;;4932978;28;20042;-70
2024/01/12 10:04:51;;;;;;;15.85;10.52;;;1.00;99.90;;;;;;4933848;28;20042;-70
2024/01/12 10:07:17;;;;;;;21.20;14.82;;;1.10;99.90;;;;;;4931311;28;20040;-70
2024/01/12 10:09:43;;;;;;;23.48;15.20;;;1.10;99.90;;;;;;4917805;28;20112;-69
2024/01/12 10:12:08;;;;;;;21.35;14.98;;;1.10;99.90;;;;;;4926451;28;20031;-70
2024/01/12 10:14:34;;;;;;;21.65;14.00;;;1.10;99.90;;;;;;4930718;28;20030;-70
2024/01/12 10:17:00;;;;;;;23.20;12.63;;;1.10;99.90;;;;;;4929644;28;20563;-69
2024/01/12 10:19:26;;;;;;;18.15;11.02;;;1.10;99.90;;;;;;4934402;28;20043;-69
2024/01/12 10:21:52;;;;;;;19.30;11.05;;;1.20;99.90;;;;;;4930953;28;20321;-69
2024/01/12 10:24:19;;;;;;;41.20;11.38;;;1.20;99.90;;;;;;4928451;28;20027;-69
2024/01/12 10:26:49;;;;;;;25.70;10.52;;;1.30;99.90;;;;;;4928401;28;20268;-70
2024/01/12 10:29:15;;;;;;;19.75;12.48;;;1.40;99.90;;;;;;4931607;28;20039;-70
2024/01/12 10:31:45;;;;;;;20.27;12.57;;;1.40;99.90;;;;;;4928343;28;20113;-70
2024/01/12 10:34:14;;;;;;;20.13;12.73;;;1.40;99.90;;;;;;4928424;28;20515;-70
2024/01/12 10:36:40;;;;;;;15.18;9.30;;;1.40;99.90;;;;;;4928573;28;20553;-69
2024/01/12 10:39:10;;;;;;;13.23;7.80;;;1.30;99.90;;;;;;4926439;28;20035;-69
2024/01/12 10:41:36;;;;;;;11.25;6.85;;;1.10;99.90;;;;;;4927048;28;20401;-70
2024/01/12 10:44:04;;;;;;;12.10;7.88;;;1.20;99.90;;;;;;4925705;28;20264;-70
2024/01/12 10:46:40;;;;;;;11.88;7.75;;;1.30;99.90;;;;;;4934729;28;20039;-70
2024/01/12 10:49:18;;;;;;;19.65;10.52;;;1.40;99.90;;;;;;4935921;28;20066;-70
2024/01/12 10:52:13;;;;;;;17.10;9.02;;;1.50;99.90;;;;;;4937498;28;20700;-70
2024/01/12 10:55:04;;;;;;;23.30;13.88;;;1.60;99.90;;;;;;4939651;28;20098;-70
2024/01/12 10:57:32;;;;;;;29.20;16.45;;;1.70;99.90;;;;;;4936791;28;20476;-70
2024/01/12 10:59:58;;;;;;;19.30;10.88;;;1.90;99.90;;;;;;4933320;28;20039;-69
2024/01/12 11:02:25;;;;;;;42.38;20.83;;;2.00;99.90;;;;;;4930697;28;20462;-69
2024/01/12 11:04:51;;;;;;;39.20;21.38;;;2.00;99.90;;;;;;4935356;28;20163;-69
2024/01/12 11:07:18;;;;;;;28.63;16.10;;;2.10;99.90;;;;;;4934493;28;20046;-69
2024/01/12 11:09:43;;;;;;;29.83;16.40;;;2.20;99.90;;;;;;4937639;28;20139;-69
2024/01/12 11:12:12;;;;;;;22.85;14.45;;;2.20;99.90;;;;;;4931736;28;20034;-68
2024/01/12 11:14:39;;;;;;;18.10;9.95;;;2.30;99.90;;;;;;4934970;28;20031;-69
2024/01/12 11:17:06;;;;;;;12.70;8.27;;;2.30;99.90;;;;;;4929952;28;20250;-69
2024/01/12 11:19:32;;;;;;;19.33;10.35;;;2.30;99.90;;;;;;4934397;28;20085;-68
2024/01/12 11:22:11;;;;;;;15.45;9.82;;;2.30;99.90;;;;;;4934609;28;20066;-68
2024/01/12 11:24:39;;;;;;;17.33;11.88;;;2.30;99.90;;;;;;4934596;28;20035;-68
2024/01/12 11:27:06;;;;;;;30.52;17.98;;;2.30;99.90;;;;;;4934515;28;20023;-68
2024/01/12 11:29:35;;;;;;;29.98;18.08;;;2.30;99.90;;;;;;4934113;28;20134;-69
2024/01/12 11:32:03;;;;;;;23.17;14.27;;;2.40;99.90;;;;;;4936476;28;20031;-68
2024/01/12 11:34:37;;;;;;;28.38;18.35;;;2.40;99.90;;;;;;4935861;28;20031;-69
2024/01/12 11:37:07;;;;;;;31.63;18.38;;;2.50;99.90;;;;;;4936194;28;20028;-68
2024/01/12 11:39:37;;;;;;;67.00;39.85;;;2.50;99.90;;;;;;4932537;28;20167;-68
2024/01/12 11:42:05;;;;;;;92.75;55.50;;;2.50;99.90;;;;;;4933725;28;20838;-69
2024/01/12 11:44:35;;;;;;;66.95;34.78;;;2.60;99.90;;;;;;4938730;28;20311;-67
2024/01/12 11:47:01;;;;;;;82.82;29.95;;;2.60;99.90;;;;;;4936788;28;20038;-68
2024/01/12 11:49:29;;;;;;;55.85;24.33;;;2.70;99.90;;;;;;4922392;28;20509;-68
2024/01/12 11:52:05;;;;;;;56.03;23.05;;;2.70;99.90;;;;;;4932467;28;20073;-68
2024/01/12 11:54:31;;;;;;;52.65;28.65;;;2.70;99.90;;;;;;4931695;28;20051;-68
2024/01/12 11:56:57;;;;;;;22.08;13.50;;;2.70;99.90;;;;;;4931181;28;20066;-67
2024/01/12 11:59:22;;;;;;;20.45;12.43;;;2.80;99.90;;;;;;4933724;28;20038;-68
2024/01/12 12:01:48;;;;;;;47.13;29.02;;;2.80;99.90;;;;;;4933174;28;20076;-67
2024/01/12 12:04:17;;;;;;;23.65;14.48;;;2.80;99.90;;;;;;4935274;28;20122;-68
2024/01/12 12:06:46;;;;;;;34.55;16.75;;;2.70;99.90;;;;;;4935268;28;20055;-66
2024/01/12 12:09:12;;;;;;;15.13;9.95;;;2.70;99.90;;;;;;4935950;28;20047;-68
2024/01/12 12:11:38;;;;;;;15.98;11.98;;;2.90;99.90;;;;;;4914145;28;20035;-68
2024/01/12 12:14:04;;;;;;;15.05;10.75;;;3.00;99.90;;;;;;4932228;28;20034;-68
2024/01/12 12:16:29;;;;;;;28.00;8.70;;;3.00;99.90;;;;;;4931351;28;20123;-68
2024/01/12 12:18:55;;;;;;;10.90;6.95;;;3.20;99.90;;;;;;4932481;28;20039;-68
2024/01/12 12:21:21;;;;;;;8.32;5.57;;;3.20;99.90;;;;;;4931290;28;20035;-68
2024/01/12 12:23:47;;;;;;;11.95;7.05;;;3.30;99.90;;;;;;4934355;28;20501;-67
2024/01/12 12:26:13;;;;;;;5.53;3.50;;;3.30;99.90;;;;;;4935008;28;20649;-68